Time;durP1;ratioP1;P1;durP2;ratioP2;P2;SDS_P1;SDS_P2;PMS_P1;PMS_P2;Temp;Humidity;BMP_temperature;BMP_pressure;BME280_temperature;BME280_humidity;BME280_pressure;Samples;Min_cycle;Max_cycle;Signal;HPM_P1;HPM_P2
2022/07/27 00:02:17;;;;;;;15.27;13.70;;;;;;;26.34;nan;94689.53;5030518;28;20207;-68
2022/07/27 00:04:44;;;;;;;14.60;13.30;;;;;;;26.66;nan;94684.44;5033373;28;20653;-67
2022/07/27 00:07:11;;;;;;;14.02;12.63;;;;;;;26.69;nan;94684.13;5034592;28;20672;-68
2022/07/27 00:09:37;;;;;;;13.43;12.02;;;;;;;25.84;nan;94684.19;5033287;28;20306;-68
2022/07/27 00:12:06;;;;;;;13.65;12.45;;;;;;;25.55;nan;94682.66;5031901;28;20257;-68
2022/07/27 00:14:33;;;;;;;13.18;11.98;;;;;;;25.61;nan;94697.66;5035500;28;20210;-67
2022/07/27 00:16:59;;;;;;;14.35;13.23;;;;;;;25.78;nan;94683.00;5033720;28;20203;-68
2022/07/27 00:19:26;;;;;;;14.52;13.25;;;;;;;25.81;nan;94687.09;5033647;28;21139;-66
2022/07/27 00:21:53;;;;;;;14.13;12.80;;;;;;;26.20;nan;94696.13;5034212;28;20195;-69
2022/07/27 00:24:20;;;;;;;13.52;12.30;;;;;;;26.25;nan;94701.66;5032762;28;20268;-68
2022/07/27 00:26:46;;;;;;;14.07;12.75;;;;;;;26.38;nan;94696.06;5032730;28;20792;-68
2022/07/27 00:29:14;;;;;;;15.50;13.30;;;;;;;;;;5032868;28;20207;-67
2022/07/27 00:31:41;;;;;;;14.75;13.27;;;;;;;25.90;nan;94697.41;5034276;28;20353;-67
2022/07/27 00:34:08;;;;;;;14.00;12.60;;;;;;;;;;5033353;28;20240;-67
2022/07/27 00:36:34;;;;;;;13.73;12.45;;;;;;;24.66;nan;94706.03;5032122;28;20199;-68
2022/07/27 00:39:01;;;;;;;14.90;13.65;;;;;;;;;;5032570;28;20377;-68
2022/07/27 00:41:28;;;;;;;15.82;14.07;;;;;;;25.52;nan;94718.56;5032016;28;20207;-67
2022/07/27 00:43:57;;;;;;;14.68;13.23;;;;;;;25.92;nan;94720.69;5038059;28;20253;-68
2022/07/27 00:46:26;;;;;;;19.13;16.30;;;;;;;26.09;nan;94717.22;5031289;28;20882;-68
2022/07/27 00:48:53;;;;;;;15.05;13.75;;;;;;;26.14;nan;94719.34;5032596;28;20280;-68
2022/07/27 00:51:21;;;;;;;15.93;14.48;;;;;;;26.34;nan;94726.00;5032141;28;20265;-68
2022/07/27 00:53:48;;;;;;;14.63;13.25;;;;;;;;;;5032038;28;21102;-67
2022/07/27 00:56:15;;;;;;;13.80;12.45;;;;;;;26.42;nan;94728.66;5032327;28;20223;-67
2022/07/27 00:58:46;;;;;;;13.63;12.15;;;;;;;26.20;nan;94723.97;5033355;28;20344;-67
2022/07/27 01:01:13;;;;;;;15.02;12.60;;;;;;;25.95;nan;94716.00;5030530;28;20681;-68
2022/07/27 01:03:41;;;;;;;13.65;12.50;;;;;;;25.73;nan;94712.13;5032025;28;20686;-67
2022/07/27 01:06:08;;;;;;;12.23;11.23;;;;;;;;;;5032584;28;20226;-68
2022/07/27 01:08:35;;;;;;;18.63;12.60;;;;;;;25.46;nan;94720.00;5032141;28;20195;-67
2022/07/27 01:11:03;;;;;;;13.80;12.57;;;;;;;25.17;nan;94715.03;5033106;28;20272;-68
2022/07/27 01:13:30;;;;;;;13.82;12.63;;;;;;;24.98;nan;94720.38;5028484;28;20575;-67
2022/07/27 01:15:58;;;;;;;14.27;12.88;;;;;;;24.76;nan;94734.53;5031520;28;20199;-67
2022/07/27 01:18:30;;;;;;;15.80;14.30;;;;;;;25.28;nan;94729.56;5031531;28;20199;-68
2022/07/27 01:20:58;;;;;;;18.23;13.82;;;;;;;;;;5031923;28;20227;-68
2022/07/27 01:23:28;;;;;;;13.35;12.15;;;;;;;25.21;nan;94725.94;5031440;28;20707;-68
2022/07/27 01:25:55;;;;;;;12.75;11.30;;;;;;;25.22;nan;94725.00;5032204;28;20198;-68
2022/07/27 01:28:21;;;;;;;13.80;12.13;;;;;;;25.52;nan;94728.97;5031732;28;20237;-67
2022/07/27 01:30:48;;;;;;;12.57;11.25;;;;;;;;;;5032612;28;20207;-68
2022/07/27 01:33:15;;;;;;;14.52;13.05;;;;;;;25.63;nan;94736.59;5030789;28;20709;-68
2022/07/27 01:35:41;;;;;;;15.15;12.80;;;;;;;25.69;nan;94736.81;5030269;28;20790;-68
2022/07/27 01:38:10;;;;;;;12.82;11.55;;;;;;;25.80;nan;94721.91;5031490;28;20207;-69
2022/07/27 01:40:39;;;;;;;12.75;11.55;;;;;;;26.01;nan;94736.19;5030453;28;20241;-68
2022/07/27 01:43:06;;;;;;;12.45;11.48;;;;;;;25.72;nan;94715.69;5029580;28;20290;-69
2022/07/27 01:45:33;;;;;;;14.68;13.20;;;;;;;25.32;nan;94734.34;5031703;28;20863;-68
2022/07/27 01:48:00;;;;;;;14.90;11.85;;;;;;;24.99;nan;94742.81;5030353;28;20199;-68
2022/07/27 01:50:27;;;;;;;14.50;11.57;;;;;;;24.80;nan;94733.28;5030907;28;20294;-68
2022/07/27 01:52:53;;;;;;;14.07;12.85;;;;;;;24.87;nan;94736.94;5030634;28;20629;-68
2022/07/27 01:55:20;;;;;;;14.45;11.73;;;;;;;;;;5031294;28;20207;-68
2022/07/27 01:57:48;;;;;;;14.45;12.25;;;;;;;;;;5030147;28;20240;-68
2022/07/27 02:00:15;;;;;;;13.57;12.38;;;;;;;25.79;nan;94730.66;5029795;28;20792;-68
2022/07/27 02:02:42;;;;;;;13.50;12.18;;;;;;;25.89;nan;94736.63;5029656;28;20320;-68
2022/07/27 02:05:11;;;;;;;14.35;12.88;;;;;;;25.75;nan;94741.38;5030352;28;20651;-69
2022/07/27 02:07:38;;;;;;;13.55;12.25;;;;;;;;;;5033045;28;20313;-69
2022/07/27 02:10:05;;;;;;;10.20;9.20;;;;;;;;;;5032755;28;20597;-68
2022/07/27 02:12:36;;;;;;;11.88;9.70;;;;;;;25.45;nan;94735.75;5032281;28;20202;-69
2022/07/27 02:15:10;;;;;;;8.48;7.88;;;;;;;25.56;nan;94735.50;5032069;28;20817;-69
2022/07/27 02:17:38;;;;;;;8.68;8.00;;;;;;;25.56;nan;94740.72;5032044;28;20201;-69
2022/07/27 02:20:06;;;;;;;8.02;7.40;;;;;;;;;;5031630;28;20211;-68
2022/07/27 02:22:32;;;;;;;8.38;7.45;;;;;;;25.71;nan;94747.88;5030879;28;20194;-69
2022/07/27 02:24:59;;;;;;;10.80;7.88;;;;;;;25.82;nan;94740.78;5031479;28;20268;-68
2022/07/27 02:27:26;;;;;;;7.78;6.43;;;;;;;25.74;nan;94744.94;5031268;28;20257;-69
2022/07/27 02:29:53;;;;;;;7.55;6.95;;;;;;;;;;5031901;28;20211;-68
2022/07/27 02:32:21;;;;;;;7.63;7.22;;;;;;;;;;5030464;28;20213;-67
2022/07/27 02:34:47;;;;;;;8.07;6.93;;;;;;;25.93;nan;94737.94;5030603;28;20750;-68
2022/07/27 02:37:14;;;;;;;7.57;6.95;;;;;;;;;;5031142;28;20704;-68
2022/07/27 02:39:41;;;;;;;8.15;6.90;;;;;;;26.01;nan;94745.78;5031536;28;20689;-69
2022/07/27 02:42:08;;;;;;;7.28;6.60;;;;;;;26.15;nan;94742.66;5031421;28;20274;-68
2022/07/27 02:44:35;;;;;;;7.07;6.50;;;;;;;26.25;nan;94742.53;5031695;28;20223;-68
2022/07/27 02:47:01;;;;;;;6.70;6.00;;;;;;;26.27;nan;94741.41;5031129;28;20361;-68
2022/07/27 02:49:30;;;;;;;7.40;6.68;;;;;;;26.15;nan;94741.81;5031583;28;21060;-68
2022/07/27 02:51:56;;;;;;;7.10;6.50;;;;;;;;;;5031128;28;20290;-68
2022/07/27 02:54:24;;;;;;;7.22;6.45;;;;;;;;;;5030934;28;20722;-68
2022/07/27 02:56:52;;;;;;;7.35;6.70;;;;;;;26.21;nan;94746.44;5030422;28;20664;-68
2022/07/27 02:59:19;;;;;;;7.65;6.85;;;;;;;26.15;nan;94747.84;5030981;28;20976;-69
2022/07/27 03:01:46;;;;;;;6.90;6.07;;;;;;;;;;5030357;28;20223;-68
2022/07/27 03:04:12;;;;;;;7.45;6.88;;;;;;;;;;5030803;28;20219;-69
2022/07/27 03:06:41;;;;;;;8.00;6.80;;;;;;;26.18;nan;94757.97;5030559;28;20272;-68
2022/07/27 03:09:08;;;;;;;7.75;7.15;;;;;;;26.19;nan;94770.03;5031581;28;20203;-69
2022/07/27 03:11:35;;;;;;;11.52;6.63;;;;;;;26.26;nan;94776.22;5033275;28;20352;-68
2022/07/27 03:14:02;;;;;;;7.45;6.88;;;;;;;26.30;nan;94767.19;5031618;28;20194;-68
2022/07/27 03:16:28;;;;;;;7.55;6.68;;;;;;;;;;5031201;28;20255;-69
2022/07/27 03:18:56;;;;;;;10.50;6.43;;;;;;;26.14;nan;94774.06;5032228;28;20230;-68
2022/07/27 03:21:23;;;;;;;6.97;6.47;;;;;;;25.82;nan;94785.03;5029953;28;20322;-68
2022/07/27 03:23:51;;;;;;;7.35;6.53;;;;;;;25.75;nan;94777.81;5030667;28;20207;-68
2022/07/27 03:26:18;;;;;;;7.38;6.75;;;;;;;25.84;nan;94778.72;5033771;28;20211;-69
2022/07/27 03:28:45;;;;;;;14.05;6.95;;;;;;;26.05;nan;94778.38;5032870;28;20230;-68
2022/07/27 03:31:12;;;;;;;10.75;7.28;;;;;;;26.05;nan;94770.56;5033936;28;20195;-68
2022/07/27 03:33:38;;;;;;;9.55;7.03;;;;;;;;;;5032425;28;20708;-69
2022/07/27 03:36:06;;;;;;;7.75;7.05;;;;;;;26.22;nan;94779.31;5032693;28;20700;-69
2022/07/27 03:38:32;;;;;;;8.60;7.07;;;;;;;26.55;nan;94775.13;5032228;28;20203;-68
2022/07/27 03:41:01;;;;;;;10.55;6.88;;;;;;;27.00;nan;94773.06;5034765;28;20269;-68
2022/07/27 03:43:27;;;;;;;9.32;7.15;;;;;;;;;;5035069;28;20225;-68
2022/07/27 03:45:54;;;;;;;11.05;7.43;;;;;;;27.91;nan;94775.69;5034559;28;20280;-68
2022/07/27 03:48:21;;;;;;;8.63;7.28;;;;;;;28.07;nan;94780.06;5033613;28;20211;-68
2022/07/27 03:50:48;;;;;;;8.07;7.55;;;;;;;27.76;nan;94778.13;5034218;28;20199;-69
2022/07/27 03:53:16;;;;;;;15.35;7.28;;;;;;;27.81;nan;94787.25;5034733;28;20663;-68
2022/07/27 03:55:44;;;;;;;13.32;6.78;;;;;;;27.77;nan;94784.97;5033959;28;20302;-68
2022/07/27 03:58:12;;;;;;;8.02;7.22;;;;;;;27.69;nan;94782.38;5033570;28;20199;-69
2022/07/27 04:00:39;;;;;;;7.93;7.22;;;;;;;27.76;nan;94778.13;5034214;28;20716;-68
2022/07/27 04:03:06;;;;;;;7.07;6.32;;;;;;;27.79;nan;94782.19;5032671;28;20199;-68
2022/07/27 04:05:33;;;;;;;7.97;6.85;;;;;;;27.59;nan;94780.88;5034358;28;20226;-68
2022/07/27 04:07:59;;;;;;;11.15;6.90;;;;;;;27.69;nan;94782.38;5033079;28;20214;-68
2022/07/27 04:10:26;;;;;;;8.75;6.63;;;;;;;27.80;nan;94777.78;5033706;28;20195;-68
2022/07/27 04:12:53;;;;;;;9.18;6.82;;;;;;;27.87;nan;94784.81;5033237;28;20199;-69
2022/07/27 04:15:21;;;;;;;8.30;7.05;;;;;;;28.01;nan;94791.16;5034866;28;20202;-69
2022/07/27 04:17:49;;;;;;;8.10;6.60;;;;;;;28.15;nan;94787.09;5033675;28;20595;-68
2022/07/27 04:20:16;;;;;;;7.72;6.65;;;;;;;28.31;nan;94787.09;5035391;28;20227;-68
2022/07/27 04:22:42;;;;;;;6.75;6.13;;;;;;;28.40;nan;94781.69;5033327;28;20261;-68
2022/07/27 04:25:10;;;;;;;7.05;6.07;;;;;;;28.51;nan;94787.53;5033490;28;20706;-68
2022/07/27 04:27:37;;;;;;;11.98;8.55;;;;;;;;;;5034093;28;20263;-69
2022/07/27 04:30:04;;;;;;;10.70;8.20;;;;;;;28.61;nan;94788.16;5033078;28;20589;-68
2022/07/27 04:32:33;;;;;;;9.80;7.72;;;;;;;28.62;nan;94789.81;5032754;28;20195;-68
2022/07/27 04:34:59;;;;;;;7.85;7.22;;;;;;;28.63;nan;94800.09;5031361;28;20285;-69
2022/07/27 04:37:26;;;;;;;9.63;6.68;;;;;;;28.59;nan;94790.94;5034112;28;20218;-68
2022/07/27 04:39:57;;;;;;;7.30;6.60;;;;;;;28.60;nan;94794.38;5032425;28;20210;-68
2022/07/27 04:42:23;;;;;;;13.27;6.60;;;;;;;28.67;nan;94803.19;5034889;28;20222;-69
2022/07/27 04:44:50;;;;;;;15.75;6.97;;;;;;;28.88;nan;94806.09;5033762;28;20684;-67
2022/07/27 04:47:17;;;;;;;10.05;7.13;;;;;;;28.81;nan;94810.34;5034205;28;20207;-68
2022/07/27 04:49:46;;;;;;;11.65;8.10;;;;;;;28.89;nan;94838.28;5033400;28;20202;-68
2022/07/27 04:52:14;;;;;;;7.85;7.18;;;;;;;28.94;nan;94809.84;5032800;28;20195;-68
2022/07/27 04:54:41;;;;;;;8.20;6.78;;;;;;;28.79;nan;94820.13;5032636;28;20222;-68
2022/07/27 04:57:08;;;;;;;12.15;6.32;;;;;;;28.60;nan;94823.13;5032042;28;20257;-68
2022/07/27 04:59:34;;;;;;;10.63;6.28;;;;;;;28.62;nan;94821.19;5032669;28;20207;-68
2022/07/27 05:02:01;;;;;;;8.90;6.47;;;;;;;;;;5032690;28;21075;-68
2022/07/27 05:04:28;;;;;;;15.57;7.90;;;;;;;28.75;nan;94826.69;5034036;28;20190;-67
2022/07/27 05:06:56;;;;;;;8.15;7.30;;;;;;;28.69;nan;94825.59;5032383;28;20261;-68
2022/07/27 05:09:23;;;;;;;9.13;7.35;;;;;;;28.81;nan;94828.66;5031797;28;20203;-67
2022/07/27 05:11:49;;;;;;;12.07;6.90;;;;;;;28.92;nan;94833.56;5032617;28;20195;-67
2022/07/27 05:14:16;;;;;;;12.90;7.35;;;;;;;29.09;nan;94834.28;5032623;28;20239;-67
2022/07/27 05:16:43;;;;;;;7.80;7.10;;;;;;;29.40;nan;94840.41;5032132;28;20207;-67
2022/07/27 05:19:11;;;;;;;10.20;6.80;;;;;;;29.62;nan;94836.19;5032723;28;20203;-67
2022/07/27 05:21:37;;;;;;;9.50;7.10;;;;;;;30.26;nan;94828.84;5031327;28;20219;-69
2022/07/27 05:24:06;;;;;;;9.00;6.15;;;;;;;31.34;nan;94829.22;5031839;28;20665;-68
2022/07/27 05:26:33;;;;;;;11.02;6.63;;;;;;;32.24;nan;94826.13;5032002;28;20676;-68
2022/07/27 05:29:00;;;;;;;14.05;7.07;;;;;;;33.89;nan;94820.97;5032928;28;20199;-69
2022/07/27 05:31:26;;;;;;;11.80;6.97;;;;;;;35.26;nan;94813.94;5031953;28;21044;-69
2022/07/27 05:33:53;;;;;;;11.15;8.18;;;;;;;37.07;nan;94822.88;5032646;28;20203;-68
2022/07/27 05:36:20;;;;;;;11.85;6.82;;;;;;;38.62;nan;94830.19;5031700;28;20199;-68
2022/07/27 05:38:47;;;;;;;22.08;12.70;;;;;;;39.02;nan;94825.81;5032893;28;20211;-69
2022/07/27 05:41:15;;;;;;;61.10;41.10;;;;;;;;;;5032202;28;20356;-68
2022/07/27 05:43:41;;;;;;;29.30;21.23;;;;;;;39.76;nan;94816.16;5033279;28;20207;-69
2022/07/27 05:46:08;;;;;;;27.75;22.50;;;;;;;39.86;nan;94815.50;5032967;28;20668;-69
2022/07/27 05:48:35;;;;;;;13.07;11.75;;;;;;;40.13;nan;94821.06;5031280;28;20203;-69
2022/07/27 05:51:01;;;;;;;17.05;8.20;;;;;;;39.51;nan;94823.66;5031190;28;20203;-69
2022/07/27 05:53:28;;;;;;;17.30;8.18;;;;;;;;;;5033204;28;20199;-69
2022/07/27 05:55:55;;;;;;;13.20;7.13;;;;;;;39.74;nan;94823.56;5032679;28;20585;-69
2022/07/27 05:58:23;;;;;;;11.77;7.28;;;;;;;39.43;nan;94822.13;5031735;28;20708;-68
2022/07/27 06:00:50;;;;;;;7.78;6.60;;;;;;;39.90;nan;94823.88;5031534;28;20296;-69
2022/07/27 06:03:16;;;;;;;10.20;7.13;;;;;;;39.89;nan;94825.72;5031338;28;20272;-70
2022/07/27 06:05:43;;;;;;;10.07;7.15;;;;;;;40.04;nan;94822.53;5032717;28;20215;-70
2022/07/27 06:08:09;;;;;;;7.45;6.75;;;;;;;39.89;nan;94820.41;5031824;28;20278;-69
2022/07/27 06:10:39;;;;;;;15.30;7.50;;;;;;;40.27;nan;94819.72;5032668;28;20207;-70
2022/07/27 06:13:08;;;;;;;7.68;6.90;;;;;;;40.39;nan;94815.16;5030499;28;20199;-69
2022/07/27 06:15:41;;;;;;;7.88;7.13;;;;;;;39.48;nan;94823.31;5032581;28;20206;-70
2022/07/27 06:18:16;;;;;;;11.35;7.57;;;;;;;39.09;nan;94821.19;5032567;28;20199;-70
2022/07/27 06:20:44;;;;;;;12.55;7.35;;;;;;;38.94;nan;94828.00;5031301;28;20210;-69
2022/07/27 06:23:11;;;;;;;8.05;6.97;;;;;;;;;;5033380;28;22124;-68
2022/07/27 06:25:37;;;;;;;8.30;7.05;;;;;;;40.24;nan;94830.84;5034014;28;20207;-70
2022/07/27 06:28:05;;;;;;;7.47;6.88;;;;;;;40.21;nan;94828.69;5034799;28;20211;-70
2022/07/27 06:30:32;;;;;;;8.18;7.10;;;;;;;40.01;nan;94829.13;5031391;28;20638;-69
2022/07/27 06:33:00;;;;;;;8.93;6.43;;;;;;;39.24;nan;94827.88;5030979;28;20207;-68
2022/07/27 06:35:26;;;;;;;9.02;6.95;;;;;;;;;;5033577;28;20584;-68
2022/07/27 06:37:53;;;;;;;8.65;7.85;;;;;;;;;;5033184;28;20198;-68
2022/07/27 06:40:20;;;;;;;11.65;6.95;;;;;;;38.62;nan;94841.63;5031627;28;20642;-67
2022/07/27 06:42:47;;;;;;;13.07;7.65;;;;;;;38.12;nan;94841.97;5031072;28;20771;-68
2022/07/27 06:45:14;;;;;;;11.32;7.03;;;;;;;37.66;nan;94847.09;5032549;28;20203;-68
2022/07/27 06:47:41;;;;;;;8.27;7.43;;;;;;;37.55;nan;94835.38;5032190;28;20810;-68
2022/07/27 06:50:10;;;;;;;50.25;36.88;;;;;;;37.37;nan;94849.44;5031907;28;20206;-68
2022/07/27 06:52:37;;;;;;;62.75;43.47;;;;;;;37.38;nan;94844.97;5032140;28;20206;-69
2022/07/27 06:55:04;;;;;;;29.05;22.83;;;;;;;36.76;nan;94826.47;5031658;28;20203;-69
2022/07/27 06:57:31;;;;;;;25.98;18.27;;;;;;;36.52;nan;94866.16;5032257;28;20276;-69
2022/07/27 06:59:57;;;;;;;19.35;14.85;;;;;;;36.50;nan;94825.84;5034168;28;20235;-69
2022/07/27 07:02:24;;;;;;;13.77;9.57;;;;;;;36.17;nan;94816.31;5033942;28;20238;-69
2022/07/27 07:04:51;;;;;;;12.82;9.77;;;;;;;36.07;nan;94818.66;5034626;28;20222;-69
2022/07/27 07:07:21;;;;;;;18.02;8.30;;;;;;;35.71;nan;94827.16;5034474;28;20234;-69
2022/07/27 07:09:47;;;;;;;14.05;7.68;;;;;;;35.58;nan;94828.06;5034552;28;20765;-69
2022/07/27 07:12:14;;;;;;;8.40;7.55;;;;;;;35.52;nan;94826.25;5034187;28;20184;-69
2022/07/27 07:14:41;;;;;;;8.75;7.53;;;;;;;35.07;nan;94825.38;5035774;28;20685;-69
2022/07/27 07:17:08;;;;;;;9.00;7.25;;;;;;;34.85;nan;94816.91;5036300;28;20206;-70
2022/07/27 07:19:34;;;;;;;16.33;6.70;;;;;;;34.64;nan;94819.78;5035465;28;20344;-70
2022/07/27 07:22:01;;;;;;;9.18;7.55;;;;;;;34.63;nan;94820.78;5034258;28;20223;-68
2022/07/27 07:24:30;;;;;;;8.82;6.55;;;;;;;34.46;nan;94829.13;5033869;28;20203;-68
2022/07/27 07:26:56;;;;;;;9.85;7.60;;;;;;;34.45;nan;94821.41;5033692;28;20205;-69
2022/07/27 07:29:23;;;;;;;10.85;6.72;;;;;;;34.49;nan;94814.69;5034793;28;20199;-69
2022/07/27 07:31:50;;;;;;;10.15;7.53;;;;;;;;;;5034281;28;20199;-68
2022/07/27 07:34:16;;;;;;;8.75;7.68;;;;;;;34.29;nan;94812.06;5035035;28;20229;-69
2022/07/27 07:36:44;;;;;;;9.00;7.13;;;;;;;34.29;nan;94817.34;5033451;28;20206;-69
2022/07/27 07:39:11;;;;;;;10.18;7.40;;;;;;;34.28;nan;94815.69;5034146;28;20227;-69
2022/07/27 07:41:39;;;;;;;12.85;8.52;;;;;;;34.37;nan;94809.25;5033540;28;20219;-68
2022/07/27 07:44:07;;;;;;;8.32;7.15;;;;;;;34.49;nan;94816.53;5033730;28;20347;-69
2022/07/27 07:46:35;;;;;;;10.18;6.90;;;;;;;34.19;nan;94816.91;5034540;28;20288;-69
2022/07/27 07:49:02;;;;;;;9.77;7.60;;;;;;;34.21;nan;94809.59;5034758;28;20203;-69
2022/07/27 07:51:29;;;;;;;8.40;6.97;;;;;;;;;;5033783;28;20199;-69
2022/07/27 07:53:56;;;;;;;13.82;6.90;;;;;;;33.94;nan;94813.22;5034670;28;20680;-69
2022/07/27 07:56:22;;;;;;;12.45;7.97;;;;;;;33.96;nan;94811.22;5033372;28;20708;-68
2022/07/27 07:58:51;;;;;;;7.82;7.22;;;;;;;34.21;nan;94814.88;5034801;28;20700;-70
2022/07/27 08:01:17;;;;;;;13.18;7.95;;;;;;;34.24;nan;94819.75;5033422;28;20226;-68
2022/07/27 08:03:44;;;;;;;8.05;7.03;;;;;;;34.17;nan;94818.94;5032905;28;20207;-68
2022/07/27 08:06:11;;;;;;;10.93;7.55;;;;;;;33.96;nan;94812.03;5034891;28;21062;-69
2022/07/27 08:08:39;;;;;;;17.55;7.70;;;;;;;33.96;nan;94819.94;5034450;28;20203;-69
2022/07/27 08:11:06;;;;;;;8.35;7.22;;;;;;;33.95;nan;94814.84;5035325;28;20290;-70
2022/07/27 08:13:32;;;;;;;7.82;7.07;;;;;;;33.99;nan;94809.00;5036181;28;20255;-69
2022/07/27 08:16:01;;;;;;;7.55;6.93;;;;;;;33.77;nan;94813.59;5036284;28;20256;-69
2022/07/27 08:18:27;;;;;;;7.32;6.72;;;;;;;33.88;nan;94809.59;5034996;28;20639;-69
2022/07/27 08:20:54;;;;;;;101.18;76.85;;;;;;;34.07;nan;94808.00;5036282;28;21407;-68
2022/07/27 08:23:21;;;;;;;22.27;16.25;;;;;;;34.20;nan;94813.25;5033565;28;20288;-69
2022/07/27 08:25:48;;;;;;;76.60;53.58;;;;;;;33.92;nan;94804.72;5033381;28;20206;-68
2022/07/27 08:28:15;;;;;;;20.98;15.52;;;;;;;33.91;nan;94797.81;5034807;28;20203;-69
2022/07/27 08:30:42;;;;;;;24.98;17.38;;;;;;;33.90;nan;94807.56;5033086;28;20211;-69
2022/07/27 08:33:10;;;;;;;25.90;19.80;;;;;;;34.00;nan;94796.63;5033146;28;20208;-69
2022/07/27 08:35:37;;;;;;;16.48;13.02;;;;;;;34.03;nan;94806.75;5033389;28;20446;-68
2022/07/27 08:38:06;;;;;;;12.50;10.65;;;;;;;34.03;nan;94806.75;5033846;28;20195;-68
2022/07/27 08:40:33;;;;;;;7.47;6.90;;;;;;;33.81;nan;94800.06;5034589;28;20210;-68
2022/07/27 08:43:01;;;;;;;11.45;10.35;;;;;;;33.45;nan;94798.50;5033038;28;20226;-68
2022/07/27 08:45:29;;;;;;;11.00;9.93;;;;;;;33.37;nan;94791.59;5032500;28;20203;-68
2022/07/27 08:47:56;;;;;;;11.70;8.25;;;;;;;33.54;nan;94792.06;5032552;28;20206;-68
2022/07/27 08:50:26;;;;;;;8.88;7.55;;;;;;;33.54;nan;94791.25;5033369;28;20211;-70
2022/07/27 08:52:56;;;;;;;10.02;6.45;;;;;;;33.48;nan;94798.09;5032297;28;20191;-67
2022/07/27 08:55:23;;;;;;;8.32;7.55;;;;;;;33.02;nan;94782.94;5033885;28;20214;-68
2022/07/27 08:57:50;;;;;;;9.75;7.30;;;;;;;33.26;nan;94789.53;5032704;28;20203;-69
2022/07/27 09:00:18;;;;;;;8.75;7.57;;;;;;;33.30;nan;94784.69;5032177;28;20235;-68
2022/07/27 09:02:45;;;;;;;12.10;7.38;;;;;;;33.61;nan;94792.06;5031931;28;20712;-68
2022/07/27 09:05:12;;;;;;;13.05;7.53;;;;;;;33.93;nan;94769.44;5031848;28;20223;-69
2022/07/27 09:07:41;;;;;;;15.73;8.13;;;;;;;33.78;nan;94774.91;5031736;28;20203;-68
2022/07/27 09:10:10;;;;;;;9.10;6.80;;;;;;;33.72;nan;94771.19;5032065;28;20203;-69
2022/07/27 09:12:37;;;;;;;8.32;7.50;;;;;;;33.69;nan;94762.88;5033795;28;20294;-67
2022/07/27 09:15:10;;;;;;;9.05;7.35;;;;;;;33.85;nan;94773.09;5032766;28;20229;-68
2022/07/27 09:17:39;;;;;;;10.63;7.75;;;;;;;33.79;nan;94764.16;5032736;28;20199;-68
2022/07/27 09:20:08;;;;;;;8.75;7.20;;;;;;;33.87;nan;94765.78;5032613;28;20207;-68
2022/07/27 09:22:43;;;;;;;11.27;7.40;;;;;;;33.89;nan;94774.31;5030869;28;20234;-69
2022/07/27 09:25:12;;;;;;;7.50;6.80;;;;;;;34.09;nan;94769.03;5033636;28;20202;-69
2022/07/27 09:27:40;;;;;;;8.20;7.30;;;;;;;33.92;nan;94773.88;5031530;28;20203;-68
2022/07/27 09:30:09;;;;;;;7.93;7.05;;;;;;;34.17;nan;94766.19;5033186;28;20211;-70
2022/07/27 09:32:36;;;;;;;8.05;7.45;;;;;;;34.19;nan;94774.72;5033282;28;20206;-69
2022/07/27 09:35:18;;;;;;;10.88;7.25;;;;;;;34.17;nan;94760.91;5031445;28;20195;-70
2022/07/27 09:37:46;;;;;;;7.75;6.97;;;;;;;34.11;nan;94767.03;5033853;28;20202;-68
2022/07/27 09:40:15;;;;;;;9.77;7.18;;;;;;;33.90;nan;94759.31;5033837;28;20203;-68
2022/07/27 09:42:42;;;;;;;8.50;7.63;;;;;;;33.60;nan;94757.00;5032537;28;20716;-68
2022/07/27 09:45:30;;;;;;;8.85;7.30;;;;;;;33.60;nan;94759.66;5032653;28;20232;-68
2022/07/27 09:48:12;;;;;;;8.50;7.80;;;;;;;33.62;nan;94757.63;5030963;28;20206;-68
2022/07/27 09:50:43;;;;;;;10.73;7.75;;;;;;;33.71;nan;94756.41;5031991;28;20221;-69
2022/07/27 09:53:19;;;;;;;11.38;7.55;;;;;;;33.69;nan;94752.34;5031900;28;20253;-70
2022/07/27 09:55:57;;;;;;;14.30;10.90;;;;;;;33.89;nan;94752.41;5031581;28;20202;-68
2022/07/27 09:58:37;;;;;;;20.65;17.27;;;;;;;;;;5030898;28;20206;-69
2022/07/27 10:01:04;;;;;;;37.63;27.48;;;;;;;34.15;nan;94762.97;5032034;28;20235;-68
2022/07/27 10:03:32;;;;;;;58.97;41.85;;;;;;;34.26;nan;94735.94;5030770;28;20223;-69
2022/07/27 10:05:59;;;;;;;66.97;51.83;;;;;;;34.31;nan;94736.19;5032306;28;20226;-69
2022/07/27 10:08:27;;;;;;;16.73;15.07;;;;;;;34.22;nan;94745.28;5031835;28;20644;-71
2022/07/27 10:10:54;;;;;;;10.60;9.32;;;;;;;;;;5031173;28;20788;-69
2022/07/27 10:13:21;;;;;;;10.13;7.43;;;;;;;33.87;nan;94736.78;5030872;28;20614;-69
2022/07/27 10:15:48;;;;;;;11.90;8.00;;;;;;;34.12;nan;94737.00;5031880;28;20199;-68
2022/07/27 10:18:19;;;;;;;20.20;17.45;;;;;;;34.28;nan;94730.47;5031755;28;20207;-69
2022/07/27 10:20:46;;;;;;;13.55;8.93;;;;;;;;;;5031653;28;20203;-69
2022/07/27 10:23:27;;;;;;;8.40;7.72;;;;;;;34.34;nan;94729.69;5030556;28;20219;-68
2022/07/27 10:26:17;;;;;;;7.22;6.82;;;;;;;33.89;nan;94726.88;5031483;28;20234;-68
2022/07/27 10:28:52;;;;;;;15.30;9.85;;;;;;;34.16;nan;94726.81;5031162;28;20666;-70
2022/07/27 10:31:21;;;;;;;9.40;8.65;;;;;;;34.24;nan;94719.53;5030946;28;20221;-69
2022/07/27 10:33:50;;;;;;;10.05;8.73;;;;;;;34.35;nan;94721.56;5032697;28;20234;-68
2022/07/27 10:36:19;;;;;;;8.25;7.43;;;;;;;34.10;nan;94717.94;5035728;28;20227;-68
2022/07/27 10:38:49;;;;;;;9.15;8.15;;;;;;;33.84;nan;94723.22;5035684;28;20203;-68
2022/07/27 10:41:24;;;;;;;15.68;8.98;;;;;;;34.20;nan;94728.84;5032602;28;20201;-69
2022/07/27 10:44:11;;;;;;;12.10;8.32;;;;;;;34.50;nan;94717.88;5034761;28;20241;-69
2022/07/27 10:46:42;;;;;;;9.55;8.75;;;;;;;34.23;nan;94717.91;5033215;28;20257;-68
2022/07/27 10:49:18;;;;;;;45.45;38.88;;;;;;;34.43;nan;94713.41;5035661;28;20203;-65
2022/07/27 10:51:45;;;;;;;107.32;84.50;;;;;;;34.61;nan;94706.69;5034136;28;20198;-68
2022/07/27 10:54:22;;;;;;;23.17;20.73;;;;;;;34.74;nan;94706.63;5033308;28;20681;-67
2022/07/27 10:56:50;;;;;;;21.25;18.38;;;;;;;34.74;nan;94704.81;5035017;28;20294;-67
2022/07/27 10:59:50;;;;;;;18.30;13.45;;;;;;;34.84;nan;94699.13;5034563;28;21974;-68
2022/07/27 11:02:20;;;;;;;12.52;11.45;;;;;;;34.75;nan;94690.59;5033264;28;20207;-67
2022/07/27 11:04:49;;;;;;;10.88;9.85;;;;;;;34.63;nan;94688.81;5034133;28;20226;-68
2022/07/27 11:07:18;;;;;;;13.98;9.35;;;;;;;33.94;nan;94697.22;5032736;28;20203;-68
2022/07/27 11:09:48;;;;;;;10.02;8.90;;;;;;;34.02;nan;94689.94;5033147;28;20187;-67
2022/07/27 11:12:16;;;;;;;13.48;12.07;;;;;;;34.15;nan;94689.13;5030889;28;20670;-67
2022/07/27 11:14:48;;;;;;;11.68;10.85;;;;;;;34.49;nan;94676.69;5033188;28;20210;-68
2022/07/27 11:17:15;;;;;;;10.00;8.68;;;;;;;34.49;nan;94689.88;5033788;28;20273;-67
2022/07/27 11:19:42;;;;;;;8.88;8.07;;;;;;;;;;5033069;28;20202;-69
2022/07/27 11:22:09;;;;;;;9.95;9.05;;;;;;;34.72;nan;94674.34;5032915;28;20702;-68
2022/07/27 11:24:36;;;;;;;24.13;18.15;;;;;;;34.79;nan;94676.00;5034132;28;20230;-67
2022/07/27 11:27:05;;;;;;;31.17;26.10;;;;;;;34.98;nan;94674.28;5034957;28;20203;-68
2022/07/27 11:29:35;;;;;;;30.20;23.92;;;;;;;35.02;nan;94654.34;5034770;28;20787;-67
2022/07/27 11:32:03;;;;;;;50.60;41.65;;;;;;;35.27;nan;94661.53;5033383;28;20223;-69
2022/07/27 11:34:32;;;;;;;25.58;22.90;;;;;;;35.25;nan;94660.91;5034398;28;20843;-68
2022/07/27 11:37:01;;;;;;;18.67;16.77;;;;;;;34.73;nan;94666.22;5036039;28;20203;-68
2022/07/27 11:39:31;;;;;;;19.92;18.02;;;;;;;34.25;nan;94663.13;5033887;28;20281;-68
2022/07/27 11:42:00;;;;;;;13.15;11.77;;;;;;;33.91;nan;94648.34;5033342;28;20214;-68
2022/07/27 11:44:29;;;;;;;12.25;10.93;;;;;;;33.98;nan;94657.06;5033910;28;20223;-68
2022/07/27 11:46:56;;;;;;;9.75;9.15;;;;;;;;;;5033815;28;20199;-68
2022/07/27 11:49:27;;;;;;;13.50;12.30;;;;;;;34.15;nan;94657.47;5034294;28;20199;-67
2022/07/27 11:51:56;;;;;;;10.52;9.60;;;;;;;33.84;nan;94650.22;5032948;28;20203;-67
2022/07/27 11:54:25;;;;;;;12.63;8.63;;;;;;;33.87;nan;94643.72;5034299;28;20194;-68
2022/07/27 11:56:54;;;;;;;13.50;12.35;;;;;;;34.26;nan;94638.34;5033711;28;20203;-68
2022/07/27 11:59:22;;;;;;;10.82;8.98;;;;;;;34.37;nan;94640.41;5033523;28;20252;-67
2022/07/27 12:01:52;;;;;;;11.02;9.80;;;;;;;34.49;nan;94637.09;5033231;28;20598;-68
2022/07/27 12:04:25;;;;;;;9.48;8.65;;;;;;;34.60;nan;94633.81;5033803;28;20321;-68